sensor_id;sensor_type;location;lat;lon;timestamp;temperature;humidity
3198;DHT22;1611;49.394;11.136;2023-04-24T00:01:44;11.30;77.90
3198;DHT22;1611;49.394;11.136;2023-04-24T00:04:10;11.30;77.80
3198;DHT22;1611;49.394;11.136;2023-04-24T00:06:41;11.30;77.90
3198;DHT22;1611;49.394;11.136;2023-04-24T00:09:10;11.30;78.40
3198;DHT22;1611;49.394;11.136;2023-04-24T00:11:36;11.30;78.60
3198;DHT22;1611;49.394;11.136;2023-04-24T00:14:03;11.30;78.50
3198;DHT22;1611;49.394;11.136;2023-04-24T00:16:30;11.30;78.10
3198;DHT22;1611;49.394;11.136;2023-04-24T00:18:57;11.30;78.00
3198;DHT22;1611;49.394;11.136;2023-04-24T00:21:24;11.30;77.90
3198;DHT22;1611;49.394;11.136;2023-04-24T00:23:51;11.30;78.00
3198;DHT22;1611;49.394;11.136;2023-04-24T00:26:19;11.30;77.50
3198;DHT22;1611;49.394;11.136;2023-04-24T00:28:46;11.30;77.20
3198;DHT22;1611;49.394;11.136;2023-04-24T00:31:12;11.20;77.50
3198;DHT22;1611;49.394;11.136;2023-04-24T00:33:39;11.20;77.80
3198;DHT22;1611;49.394;11.136;2023-04-24T00:36:06;11.20;78.00
3198;DHT22;1611;49.394;11.136;2023-04-24T00:38:33;11.20;78.10
3198;DHT22;1611;49.394;11.136;2023-04-24T00:41:00;11.20;78.30
3198;DHT22;1611;49.394;11.136;2023-04-24T00:43:28;11.20;78.20
3198;DHT22;1611;49.394;11.136;2023-04-24T00:45:55;11.20;78.30
3198;DHT22;1611;49.394;11.136;2023-04-24T00:48:23;11.20;78.00
3198;DHT22;1611;49.394;11.136;2023-04-24T00:50:50;11.20;77.90
3198;DHT22;1611;49.394;11.136;2023-04-24T00:53:17;11.20;78.30
3198;DHT22;1611;49.394;11.136;2023-04-24T00:55:44;11.10;78.60
3198;DHT22;1611;49.394;11.136;2023-04-24T00:58:11;11.10;79.30
3198;DHT22;1611;49.394;11.136;2023-04-24T01:00:39;11.10;78.90
3198;DHT22;1611;49.394;11.136;2023-04-24T01:03:06;11.00;79.40
3198;DHT22;1611;49.394;11.136;2023-04-24T01:05:34;11.10;79.60
3198;DHT22;1611;49.394;11.136;2023-04-24T01:08:01;11.00;79.50
3198;DHT22;1611;49.394;11.136;2023-04-24T01:10:29;11.00;79.20
3198;DHT22;1611;49.394;11.136;2023-04-24T01:12:58;11.00;79.40
3198;DHT22;1611;49.394;11.136;2023-04-24T01:15:25;11.00;79.20
3198;DHT22;1611;49.394;11.136;2023-04-24T01:17:53;11.00;79.30
3198;DHT22;1611;49.394;11.136;2023-04-24T01:20:21;11.00;79.60
3198;DHT22;1611;49.394;11.136;2023-04-24T01:22:50;11.00;79.30
3198;DHT22;1611;49.394;11.136;2023-04-24T01:25:16;11.00;79.00
3198;DHT22;1611;49.394;11.136;2023-04-24T01:27:44;11.00;78.90
3198;DHT22;1611;49.394;11.136;2023-04-24T01:30:12;10.90;78.60
3198;DHT22;1611;49.394;11.136;2023-04-24T01:32:39;11.00;78.70
3198;DHT22;1611;49.394;11.136;2023-04-24T01:35:07;10.90;78.80
3198;DHT22;1611;49.394;11.136;2023-04-24T01:37:34;10.90;78.30
3198;DHT22;1611;49.394;11.136;2023-04-24T01:40:04;10.90;78.60
3198;DHT22;1611;49.394;11.136;2023-04-24T01:42:32;10.80;78.20
3198;DHT22;1611;49.394;11.136;2023-04-24T01:44:59;10.70;78.60
3198;DHT22;1611;49.394;11.136;2023-04-24T01:47:26;10.70;78.50
3198;DHT22;1611;49.394;11.136;2023-04-24T01:49:53;10.70;78.80
3198;DHT22;1611;49.394;11.136;2023-04-24T01:52:20;10.80;78.90
3198;DHT22;1611;49.394;11.136;2023-04-24T01:54:47;10.70;78.80
3198;DHT22;1611;49.394;11.136;2023-04-24T01:57:16;10.80;79.00
3198;DHT22;1611;49.394;11.136;2023-04-24T01:59:43;10.80;78.90
3198;DHT22;1611;49.394;11.136;2023-04-24T02:02:09;10.80;78.90
3198;DHT22;1611;49.394;11.136;2023-04-24T02:04:36;10.80;78.60
3198;DHT22;1611;49.394;11.136;2023-04-24T02:07:03;10.90;78.50
3198;DHT22;1611;49.394;11.136;2023-04-24T02:09:30;10.80;78.00
3198;DHT22;1611;49.394;11.136;2023-04-24T02:11:57;10.80;78.60
3198;DHT22;1611;49.394;11.136;2023-04-24T02:14:25;10.80;78.40
3198;DHT22;1611;49.394;11.136;2023-04-24T02:16:52;10.80;79.20
3198;DHT22;1611;49.394;11.136;2023-04-24T02:19:19;10.80;78.80
3198;DHT22;1611;49.394;11.136;2023-04-24T02:21:46;10.70;79.50
3198;DHT22;1611;49.394;11.136;2023-04-24T02:24:13;10.70;79.40
3198;DHT22;1611;49.394;11.136;2023-04-24T02:26:39;10.70;79.30
3198;DHT22;1611;49.394;11.136;2023-04-24T02:29:06;10.80;79.00
3198;DHT22;1611;49.394;11.136;2023-04-24T02:31:34;10.70;78.80
3198;DHT22;1611;49.394;11.136;2023-04-24T02:34:01;10.70;78.70
3198;DHT22;1611;49.394;11.136;2023-04-24T02:36:28;10.70;79.10
3198;DHT22;1611;49.394;11.136;2023-04-24T02:38:55;10.70;79.40
3198;DHT22;1611;49.394;11.136;2023-04-24T02:41:22;10.70;78.90
3198;DHT22;1611;49.394;11.136;2023-04-24T02:43:49;10.70;78.40
3198;DHT22;1611;49.394;11.136;2023-04-24T02:46:15;10.70;78.30
3198;DHT22;1611;49.394;11.136;2023-04-24T02:48:44;10.60;78.70
3198;DHT22;1611;49.394;11.136;2023-04-24T02:51:10;10.60;79.10
3198;DHT22;1611;49.394;11.136;2023-04-24T02:53:37;10.60;79.00
3198;DHT22;1611;49.394;11.136;2023-04-24T02:56:04;10.60;78.90
3198;DHT22;1611;49.394;11.136;2023-04-24T02:58:31;10.70;79.40
3198;DHT22;1611;49.394;11.136;2023-04-24T03:00:58;10.60;79.10
3198;DHT22;1611;49.394;11.136;2023-04-24T03:03:24;10.60;79.10
3198;DHT22;1611;49.394;11.136;2023-04-24T03:05:53;10.70;79.00
3198;DHT22;1611;49.394;11.136;2023-04-24T03:08:20;10.60;78.80
3198;DHT22;1611;49.394;11.136;2023-04-24T03:10:47;10.60;78.90
3198;DHT22;1611;49.394;11.136;2023-04-24T03:13:15;10.70;78.70
3198;DHT22;1611;49.394;11.136;2023-04-24T03:15:42;10.70;78.20
3198;DHT22;1611;49.394;11.136;2023-04-24T03:18:08;10.70;78.60
3198;DHT22;1611;49.394;11.136;2023-04-24T03:20:35;10.60;78.50
3198;DHT22;1611;49.394;11.136;2023-04-24T03:23:03;10.60;79.20
3198;DHT22;1611;49.394;11.136;2023-04-24T03:25:30;10.70;78.90
3198;DHT22;1611;49.394;11.136;2023-04-24T03:27:57;10.60;79.20
3198;DHT22;1611;49.394;11.136;2023-04-24T03:30:24;10.60;78.70
3198;DHT22;1611;49.394;11.136;2023-04-24T03:32:50;10.70;78.40
3198;DHT22;1611;49.394;11.136;2023-04-24T03:35:17;10.60;78.50
3198;DHT22;1611;49.394;11.136;2023-04-24T03:37:44;10.70;78.50
3198;DHT22;1611;49.394;11.136;2023-04-24T03:40:12;10.70;78.40
3198;DHT22;1611;49.394;11.136;2023-04-24T03:42:39;10.70;78.70
3198;DHT22;1611;49.394;11.136;2023-04-24T03:45:07;10.70;78.80
3198;DHT22;1611;49.394;11.136;2023-04-24T03:47:34;10.70;78.80
3198;DHT22;1611;49.394;11.136;2023-04-24T03:50:01;10.70;78.50
3198;DHT22;1611;49.394;11.136;2023-04-24T03:52:28;10.60;78.50
3198;DHT22;1611;49.394;11.136;2023-04-24T03:54:55;10.60;77.80
3198;DHT22;1611;49.394;11.136;2023-04-24T03:57:23;10.60;77.90
3198;DHT22;1611;49.394;11.136;2023-04-24T03:59:50;10.60;77.90
3198;DHT22;1611;49.394;11.136;2023-04-24T04:02:18;10.60;77.70
3198;DHT22;1611;49.394;11.136;2023-04-24T04:04:45;10.60;77.90
3198;DHT22;1611;49.394;11.136;2023-04-24T04:07:12;10.60;77.90
3198;DHT22;1611;49.394;11.136;2023-04-24T04:09:39;10.60;77.70
3198;DHT22;1611;49.394;11.136;2023-04-24T04:12:06;10.60;77.70
3198;DHT22;1611;49.394;11.136;2023-04-24T04:14:34;10.60;77.40
3198;DHT22;1611;49.394;11.136;2023-04-24T04:17:00;10.60;77.50
3198;DHT22;1611;49.394;11.136;2023-04-24T04:19:27;10.60;77.30
3198;DHT22;1611;49.394;11.136;2023-04-24T04:21:54;10.60;77.30
3198;DHT22;1611;49.394;11.136;2023-04-24T04:24:21;10.50;77.60
3198;DHT22;1611;49.394;11.136;2023-04-24T04:26:49;10.50;77.00
3198;DHT22;1611;49.394;11.136;2023-04-24T04:29:16;10.40;77.10
3198;DHT22;1611;49.394;11.136;2023-04-24T04:31:44;10.40;77.50
3198;DHT22;1611;49.394;11.136;2023-04-24T04:34:11;10.40;77.80
3198;DHT22;1611;49.394;11.136;2023-04-24T04:36:39;10.40;78.00
3198;DHT22;1611;49.394;11.136;2023-04-24T04:39:06;10.40;78.10
3198;DHT22;1611;49.394;11.136;2023-04-24T04:41:33;10.40;78.70
3198;DHT22;1611;49.394;11.136;2023-04-24T04:44:01;10.40;78.90
3198;DHT22;1611;49.394;11.136;2023-04-24T04:46:30;10.40;79.00
3198;DHT22;1611;49.394;11.136;2023-04-24T04:48:59;10.40;78.90
3198;DHT22;1611;49.394;11.136;2023-04-24T04:51:26;10.50;78.50
3198;DHT22;1611;49.394;11.136;2023-04-24T04:53:53;10.50;78.20
3198;DHT22;1611;49.394;11.136;2023-04-24T04:56:20;10.50;78.00
3198;DHT22;1611;49.394;11.136;2023-04-24T04:58:47;10.60;77.90
3198;DHT22;1611;49.394;11.136;2023-04-24T05:01:14;10.60;78.00
3198;DHT22;1611;49.394;11.136;2023-04-24T05:03:41;10.60;77.80
3198;DHT22;1611;49.394;11.136;2023-04-24T05:06:09;10.60;78.00
3198;DHT22;1611;49.394;11.136;2023-04-24T05:08:36;10.70;78.10
3198;DHT22;1611;49.394;11.136;2023-04-24T05:11:03;10.70;78.10
3198;DHT22;1611;49.394;11.136;2023-04-24T05:13:30;10.80;77.90
3198;DHT22;1611;49.394;11.136;2023-04-24T05:15:57;10.80;77.80
3198;DHT22;1611;49.394;11.136;2023-04-24T05:18:24;10.80;77.90
3198;DHT22;1611;49.394;11.136;2023-04-24T05:20:51;10.90;77.60
3198;DHT22;1611;49.394;11.136;2023-04-24T05:23:19;10.90;77.20
3198;DHT22;1611;49.394;11.136;2023-04-24T05:25:45;11.00;77.50
3198;DHT22;1611;49.394;11.136;2023-04-24T05:28:12;11.10;77.80
3198;DHT22;1611;49.394;11.136;2023-04-24T05:30:39;11.10;77.90
3198;DHT22;1611;49.394;11.136;2023-04-24T05:33:06;11.20;77.50
3198;DHT22;1611;49.394;11.136;2023-04-24T05:35:34;11.30;77.40
3198;DHT22;1611;49.394;11.136;2023-04-24T05:38:00;11.30;77.00
3198;DHT22;1611;49.394;11.136;2023-04-24T05:40:29;11.40;77.00
3198;DHT22;1611;49.394;11.136;2023-04-24T05:42:56;11.40;76.60
3198;DHT22;1611;49.394;11.136;2023-04-24T05:45:22;11.50;76.50
3198;DHT22;1611;49.394;11.136;2023-04-24T05:47:49;11.50;75.70
3198;DHT22;1611;49.394;11.136;2023-04-24T05:50:17;11.50;75.10
3198;DHT22;1611;49.394;11.136;2023-04-24T05:52:44;11.60;75.40
3198;DHT22;1611;49.394;11.136;2023-04-24T05:55:11;11.60;75.10
3198;DHT22;1611;49.394;11.136;2023-04-24T05:57:40;11.70;75.00
3198;DHT22;1611;49.394;11.136;2023-04-24T06:00:07;11.80;74.40
3198;DHT22;1611;49.394;11.136;2023-04-24T06:02:37;11.90;74.40
3198;DHT22;1611;49.394;11.136;2023-04-24T06:05:04;12.10;74.60
3198;DHT22;1611;49.394;11.136;2023-04-24T06:07:31;12.10;73.40
3198;DHT22;1611;49.394;11.136;2023-04-24T06:09:58;12.20;71.20
3198;DHT22;1611;49.394;11.136;2023-04-24T06:12:25;12.20;71.20
3198;DHT22;1611;49.394;11.136;2023-04-24T06:14:54;12.40;72.10
3198;DHT22;1611;49.394;11.136;2023-04-24T06:17:21;12.50;71.80
3198;DHT22;1611;49.394;11.136;2023-04-24T06:19:48;12.50;71.20
3198;DHT22;1611;49.394;11.136;2023-04-24T06:22:15;12.60;70.40
3198;DHT22;1611;49.394;11.136;2023-04-24T06:24:41;12.60;70.50
3198;DHT22;1611;49.394;11.136;2023-04-24T06:27:08;12.60;69.70
3198;DHT22;1611;49.394;11.136;2023-04-24T06:29:36;12.70;69.50
3198;DHT22;1611;49.394;11.136;2023-04-24T06:32:04;12.70;68.30
3198;DHT22;1611;49.394;11.136;2023-04-24T06:34:31;12.80;68.40
3198;DHT22;1611;49.394;11.136;2023-04-24T06:36:59;12.80;69.20
3198;DHT22;1611;49.394;11.136;2023-04-24T06:39:26;12.80;68.90
3198;DHT22;1611;49.394;11.136;2023-04-24T06:41:53;12.80;68.20
3198;DHT22;1611;49.394;11.136;2023-04-24T06:44:19;12.80;68.70
3198;DHT22;1611;49.394;11.136;2023-04-24T06:46:46;12.90;67.80
3198;DHT22;1611;49.394;11.136;2023-04-24T06:49:14;12.90;68.10
3198;DHT22;1611;49.394;11.136;2023-04-24T06:51:41;12.80;65.50
3198;DHT22;1611;49.394;11.136;2023-04-24T06:54:08;12.80;67.60
3198;DHT22;1611;49.394;11.136;2023-04-24T06:56:35;12.80;66.80
3198;DHT22;1611;49.394;11.136;2023-04-24T06:59:02;12.80;65.50
3198;DHT22;1611;49.394;11.136;2023-04-24T07:01:29;12.80;65.90
3198;DHT22;1611;49.394;11.136;2023-04-24T07:03:55;12.90;65.70
3198;DHT22;1611;49.394;11.136;2023-04-24T07:06:23;13.00;66.40
3198;DHT22;1611;49.394;11.136;2023-04-24T07:08:51;13.00;63.10
3198;DHT22;1611;49.394;11.136;2023-04-24T07:11:18;13.00;62.40
3198;DHT22;1611;49.394;11.136;2023-04-24T07:13:45;13.10;61.20
3198;DHT22;1611;49.394;11.136;2023-04-24T07:16:12;13.10;61.90
3198;DHT22;1611;49.394;11.136;2023-04-24T07:18:39;13.20;61.70
3198;DHT22;1611;49.394;11.136;2023-04-24T07:21:06;13.40;60.90
3198;DHT22;1611;49.394;11.136;2023-04-24T07:23:34;13.50;59.70
3198;DHT22;1611;49.394;11.136;2023-04-24T07:26:01;13.50;58.90
3198;DHT22;1611;49.394;11.136;2023-04-24T07:28:27;13.60;58.90
3198;DHT22;1611;49.394;11.136;2023-04-24T07:30:56;13.60;59.00
3198;DHT22;1611;49.394;11.136;2023-04-24T07:33:24;13.70;59.70
3198;DHT22;1611;49.394;11.136;2023-04-24T07:35:51;13.70;58.80
3198;DHT22;1611;49.394;11.136;2023-04-24T07:38:18;13.70;55.50
3198;DHT22;1611;49.394;11.136;2023-04-24T07:40:48;13.50;53.10
3198;DHT22;1611;49.394;11.136;2023-04-24T07:43:14;13.40;51.60
3198;DHT22;1611;49.394;11.136;2023-04-24T07:45:41;13.30;50.00
3198;DHT22;1611;49.394;11.136;2023-04-24T07:48:08;13.20;50.70
3198;DHT22;1611;49.394;11.136;2023-04-24T07:50:35;13.10;51.00
3198;DHT22;1611;49.394;11.136;2023-04-24T07:53:02;13.10;51.70
3198;DHT22;1611;49.394;11.136;2023-04-24T07:55:29;13.20;50.20
3198;DHT22;1611;49.394;11.136;2023-04-24T07:57:57;13.20;52.10
3198;DHT22;1611;49.394;11.136;2023-04-24T08:00:24;13.20;48.70
3198;DHT22;1611;49.394;11.136;2023-04-24T08:02:51;13.30;50.40
3198;DHT22;1611;49.394;11.136;2023-04-24T08:05:18;13.30;49.40
3198;DHT22;1611;49.394;11.136;2023-04-24T08:07:45;13.30;50.30
3198;DHT22;1611;49.394;11.136;2023-04-24T08:10:14;13.30;45.60
3198;DHT22;1611;49.394;11.136;2023-04-24T08:12:41;13.40;48.50
3198;DHT22;1611;49.394;11.136;2023-04-24T08:15:10;13.40;46.00
3198;DHT22;1611;49.394;11.136;2023-04-24T08:17:37;13.50;44.70
3198;DHT22;1611;49.394;11.136;2023-04-24T08:20:05;13.50;43.20
3198;DHT22;1611;49.394;11.136;2023-04-24T08:22:35;13.60;42.40
3198;DHT22;1611;49.394;11.136;2023-04-24T08:25:02;13.60;43.10
3198;DHT22;1611;49.394;11.136;2023-04-24T08:27:29;13.70;46.20
3198;DHT22;1611;49.394;11.136;2023-04-24T08:29:57;13.80;44.60
3198;DHT22;1611;49.394;11.136;2023-04-24T08:32:26;13.80;40.30
3198;DHT22;1611;49.394;11.136;2023-04-24T08:34:54;13.90;43.80
3198;DHT22;1611;49.394;11.136;2023-04-24T08:37:21;13.90;42.90
3198;DHT22;1611;49.394;11.136;2023-04-24T08:39:49;13.80;40.50
3198;DHT22;1611;49.394;11.136;2023-04-24T08:42:17;13.70;42.70
3198;DHT22;1611;49.394;11.136;2023-04-24T08:44:44;13.50;44.80
3198;DHT22;1611;49.394;11.136;2023-04-24T08:47:11;13.60;46.20
3198;DHT22;1611;49.394;11.136;2023-04-24T08:49:39;13.90;44.80
3198;DHT22;1611;49.394;11.136;2023-04-24T08:52:06;14.20;41.20
3198;DHT22;1611;49.394;11.136;2023-04-24T08:54:34;14.50;40.70
3198;DHT22;1611;49.394;11.136;2023-04-24T08:57:02;14.40;37.70
3198;DHT22;1611;49.394;11.136;2023-04-24T08:59:29;14.40;38.40
3198;DHT22;1611;49.394;11.136;2023-04-24T09:01:56;14.40;39.50
3198;DHT22;1611;49.394;11.136;2023-04-24T09:04:24;14.50;39.20
3198;DHT22;1611;49.394;11.136;2023-04-24T09:06:55;14.60;37.50
3198;DHT22;1611;49.394;11.136;2023-04-24T09:09:23;14.80;39.20
3198;DHT22;1611;49.394;11.136;2023-04-24T09:11:50;14.70;37.80
3198;DHT22;1611;49.394;11.136;2023-04-24T09:14:19;14.80;34.40
3198;DHT22;1611;49.394;11.136;2023-04-24T09:16:46;15.00;35.90
3198;DHT22;1611;49.394;11.136;2023-04-24T09:19:13;15.10;34.70
3198;DHT22;1611;49.394;11.136;2023-04-24T09:21:40;14.90;35.80
3198;DHT22;1611;49.394;11.136;2023-04-24T09:24:16;14.70;35.80
3198;DHT22;1611;49.394;11.136;2023-04-24T09:26:44;14.70;37.60
3198;DHT22;1611;49.394;11.136;2023-04-24T09:29:14;14.60;35.20
3198;DHT22;1611;49.394;11.136;2023-04-24T09:31:42;14.60;38.40
3198;DHT22;1611;49.394;11.136;2023-04-24T09:34:09;14.60;36.10
3198;DHT22;1611;49.394;11.136;2023-04-24T09:36:37;14.50;35.70
3198;DHT22;1611;49.394;11.136;2023-04-24T09:39:05;14.40;35.20
3198;DHT22;1611;49.394;11.136;2023-04-24T09:41:43;14.30;37.00
3198;DHT22;1611;49.394;11.136;2023-04-24T09:44:12;14.20;38.40
3198;DHT22;1611;49.394;11.136;2023-04-24T09:46:40;13.90;36.70
3198;DHT22;1611;49.394;11.136;2023-04-24T09:49:08;13.80;37.60
3198;DHT22;1611;49.394;11.136;2023-04-24T09:51:37;13.70;39.10
3198;DHT22;1611;49.394;11.136;2023-04-24T09:54:05;13.80;38.70
3198;DHT22;1611;49.394;11.136;2023-04-24T09:56:42;14.30;39.40
3198;DHT22;1611;49.394;11.136;2023-04-24T09:59:10;14.70;37.60
3198;DHT22;1611;49.394;11.136;2023-04-24T10:01:37;15.00;36.70
3198;DHT22;1611;49.394;11.136;2023-04-24T10:04:15;14.90;37.10
3198;DHT22;1611;49.394;11.136;2023-04-24T10:06:42;14.60;36.60
3198;DHT22;1611;49.394;11.136;2023-04-24T10:09:09;14.30;34.80
3198;DHT22;1611;49.394;11.136;2023-04-24T10:11:41;14.10;36.90
3198;DHT22;1611;49.394;11.136;2023-04-24T10:14:09;14.00;36.70
3198;DHT22;1611;49.394;11.136;2023-04-24T10:16:38;14.00;36.90
3198;DHT22;1611;49.394;11.136;2023-04-24T10:19:06;14.10;36.70
3198;DHT22;1611;49.394;11.136;2023-04-24T10:21:33;14.30;33.90
3198;DHT22;1611;49.394;11.136;2023-04-24T10:24:01;14.60;36.00
3198;DHT22;1611;49.394;11.136;2023-04-24T10:26:29;14.80;34.70
3198;DHT22;1611;49.394;11.136;2023-04-24T10:28:58;15.00;33.60
3198;DHT22;1611;49.394;11.136;2023-04-24T10:31:26;15.10;33.90
3198;DHT22;1611;49.394;11.136;2023-04-24T10:33:53;15.10;33.00
3198;DHT22;1611;49.394;11.136;2023-04-24T10:36:22;15.20;30.60
3198;DHT22;1611;49.394;11.136;2023-04-24T10:38:53;15.40;28.10
3198;DHT22;1611;49.394;11.136;2023-04-24T10:41:21;15.20;29.50
3198;DHT22;1611;49.394;11.136;2023-04-24T10:43:49;15.30;32.30
3198;DHT22;1611;49.394;11.136;2023-04-24T10:46:31;15.40;29.50
3198;DHT22;1611;49.394;11.136;2023-04-24T10:48:58;15.70;30.00
3198;DHT22;1611;49.394;11.136;2023-04-24T10:51:46;15.70;29.90
3198;DHT22;1611;49.394;11.136;2023-04-24T10:54:24;15.50;29.90
3198;DHT22;1611;49.394;11.136;2023-04-24T10:56:52;15.50;28.50
3198;DHT22;1611;49.394;11.136;2023-04-24T10:59:25;15.90;26.10
3198;DHT22;1611;49.394;11.136;2023-04-24T11:01:59;15.90;24.50
3198;DHT22;1611;49.394;11.136;2023-04-24T11:04:30;15.50;28.10
3198;DHT22;1611;49.394;11.136;2023-04-24T11:06:57;15.20;31.30
3198;DHT22;1611;49.394;11.136;2023-04-24T11:09:26;14.80;32.00
3198;DHT22;1611;49.394;11.136;2023-04-24T11:12:03;14.40;32.50
3198;DHT22;1611;49.394;11.136;2023-04-24T11:14:59;14.10;35.10
3198;DHT22;1611;49.394;11.136;2023-04-24T11:17:32;13.90;33.30
3198;DHT22;1611;49.394;11.136;2023-04-24T11:20:02;14.00;34.30
3198;DHT22;1611;49.394;11.136;2023-04-24T11:22:33;14.00;34.80
3198;DHT22;1611;49.394;11.136;2023-04-24T11:25:01;14.20;33.40
3198;DHT22;1611;49.394;11.136;2023-04-24T11:27:30;14.10;34.10
3198;DHT22;1611;49.394;11.136;2023-04-24T11:30:03;14.10;33.00
3198;DHT22;1611;49.394;11.136;2023-04-24T11:32:35;14.10;32.30
3198;DHT22;1611;49.394;11.136;2023-04-24T11:35:05;14.10;30.30
3198;DHT22;1611;49.394;11.136;2023-04-24T11:37:35;14.20;31.00
3198;DHT22;1611;49.394;11.136;2023-04-24T11:40:03;14.50;31.70
3198;DHT22;1611;49.394;11.136;2023-04-24T11:42:34;14.90;29.60
3198;DHT22;1611;49.394;11.136;2023-04-24T11:45:01;15.60;29.40
3198;DHT22;1611;49.394;11.136;2023-04-24T11:47:31;16.30;27.70
3198;DHT22;1611;49.394;11.136;2023-04-24T11:49:59;17.00;24.00
3198;DHT22;1611;49.394;11.136;2023-04-24T11:52:26;17.30;24.50
3198;DHT22;1611;49.394;11.136;2023-04-24T11:54:53;17.10;24.90
3198;DHT22;1611;49.394;11.136;2023-04-24T11:57:21;16.70;24.50
3198;DHT22;1611;49.394;11.136;2023-04-24T11:59:48;16.40;25.50
3198;DHT22;1611;49.394;11.136;2023-04-24T12:02:22;15.80;27.40
3198;DHT22;1611;49.394;11.136;2023-04-24T12:04:50;15.30;28.10
3198;DHT22;1611;49.394;11.136;2023-04-24T12:07:17;14.90;27.90
3198;DHT22;1611;49.394;11.136;2023-04-24T12:09:45;14.60;29.80
3198;DHT22;1611;49.394;11.136;2023-04-24T12:12:12;14.40;30.00
3198;DHT22;1611;49.394;11.136;2023-04-24T12:14:44;14.30;30.20
3198;DHT22;1611;49.394;11.136;2023-04-24T12:17:11;14.40;28.30
3198;DHT22;1611;49.394;11.136;2023-04-24T12:19:37;14.60;28.30
3198;DHT22;1611;49.394;11.136;2023-04-24T12:22:06;15.00;28.30
3198;DHT22;1611;49.394;11.136;2023-04-24T12:24:32;15.40;26.80
3198;DHT22;1611;49.394;11.136;2023-04-24T12:26:59;15.70;27.20
3198;DHT22;1611;49.394;11.136;2023-04-24T12:29:26;16.10;25.90
3198;DHT22;1611;49.394;11.136;2023-04-24T12:31:54;16.50;24.30
3198;DHT22;1611;49.394;11.136;2023-04-24T12:34:22;16.50;24.20
3198;DHT22;1611;49.394;11.136;2023-04-24T12:36:49;16.40;24.40
3198;DHT22;1611;49.394;11.136;2023-04-24T12:39:17;16.70;25.20
3198;DHT22;1611;49.394;11.136;2023-04-24T12:41:54;16.80;23.40
3198;DHT22;1611;49.394;11.136;2023-04-24T12:44:28;16.50;24.70
3198;DHT22;1611;49.394;11.136;2023-04-24T12:46:55;16.40;24.50
3198;DHT22;1611;49.394;11.136;2023-04-24T12:49:22;16.20;24.00
3198;DHT22;1611;49.394;11.136;2023-04-24T12:51:49;15.90;24.60
3198;DHT22;1611;49.394;11.136;2023-04-24T12:54:17;15.90;26.00
3198;DHT22;1611;49.394;11.136;2023-04-24T12:56:43;15.70;24.00
3198;DHT22;1611;49.394;11.136;2023-04-24T12:59:10;15.60;25.90
3198;DHT22;1611;49.394;11.136;2023-04-24T13:01:37;15.60;26.30
3198;DHT22;1611;49.394;11.136;2023-04-24T13:04:05;15.70;26.90
3198;DHT22;1611;49.394;11.136;2023-04-24T13:06:32;15.70;27.20
3198;DHT22;1611;49.394;11.136;2023-04-24T13:08:58;15.90;25.90
3198;DHT22;1611;49.394;11.136;2023-04-24T13:11:26;16.10;24.60
3198;DHT22;1611;49.394;11.136;2023-04-24T13:13:54;16.20;24.70
3198;DHT22;1611;49.394;11.136;2023-04-24T13:16:21;16.20;25.30
3198;DHT22;1611;49.394;11.136;2023-04-24T13:18:48;16.50;22.50
3198;DHT22;1611;49.394;11.136;2023-04-24T13:21:15;17.00;24.60
3198;DHT22;1611;49.394;11.136;2023-04-24T13:23:42;17.40;22.50
3198;DHT22;1611;49.394;11.136;2023-04-24T13:26:09;17.40;23.50
3198;DHT22;1611;49.394;11.136;2023-04-24T13:28:37;17.20;23.90
3198;DHT22;1611;49.394;11.136;2023-04-24T13:31:04;16.90;24.20
3198;DHT22;1611;49.394;11.136;2023-04-24T13:33:31;16.50;24.10
3198;DHT22;1611;49.394;11.136;2023-04-24T13:35:58;16.30;26.20
3198;DHT22;1611;49.394;11.136;2023-04-24T13:38:25;15.70;25.90
3198;DHT22;1611;49.394;11.136;2023-04-24T13:40:51;15.40;28.80
3198;DHT22;1611;49.394;11.136;2023-04-24T13:43:18;15.10;28.30
3198;DHT22;1611;49.394;11.136;2023-04-24T13:45:46;15.00;28.40
3198;DHT22;1611;49.394;11.136;2023-04-24T13:48:13;14.80;27.80
3198;DHT22;1611;49.394;11.136;2023-04-24T13:50:41;14.90;28.80
3198;DHT22;1611;49.394;11.136;2023-04-24T13:53:08;14.70;28.60
3198;DHT22;1611;49.394;11.136;2023-04-24T13:55:34;14.50;29.50
3198;DHT22;1611;49.394;11.136;2023-04-24T13:58:01;14.40;30.00
3198;DHT22;1611;49.394;11.136;2023-04-24T14:00:28;14.30;29.70
3198;DHT22;1611;49.394;11.136;2023-04-24T14:02:57;14.10;31.30
3198;DHT22;1611;49.394;11.136;2023-04-24T14:05:24;13.90;31.10
3198;DHT22;1611;49.394;11.136;2023-04-24T14:07:51;13.80;31.40
3198;DHT22;1611;49.394;11.136;2023-04-24T14:10:18;13.90;31.60
3198;DHT22;1611;49.394;11.136;2023-04-24T14:12:45;14.10;31.80
3198;DHT22;1611;49.394;11.136;2023-04-24T14:15:11;14.20;32.20
3198;DHT22;1611;49.394;11.136;2023-04-24T14:17:38;14.40;30.80
3198;DHT22;1611;49.394;11.136;2023-04-24T14:20:08;14.80;30.00
3198;DHT22;1611;49.394;11.136;2023-04-24T14:22:35;15.80;28.20
3198;DHT22;1611;49.394;11.136;2023-04-24T14:25:01;16.60;24.00
3198;DHT22;1611;49.394;11.136;2023-04-24T14:27:28;17.20;23.10
3198;DHT22;1611;49.394;11.136;2023-04-24T14:29:55;18.60;21.40
3198;DHT22;1611;49.394;11.136;2023-04-24T14:32:22;19.30;19.40
3198;DHT22;1611;49.394;11.136;2023-04-24T14:34:49;18.80;19.20
3198;DHT22;1611;49.394;11.136;2023-04-24T14:37:17;18.10;21.10
3198;DHT22;1611;49.394;11.136;2023-04-24T14:39:45;17.60;22.00
3198;DHT22;1611;49.394;11.136;2023-04-24T14:42:11;17.60;22.60
3198;DHT22;1611;49.394;11.136;2023-04-24T14:44:39;17.30;22.90
3198;DHT22;1611;49.394;11.136;2023-04-24T14:47:05;16.80;24.20
3198;DHT22;1611;49.394;11.136;2023-04-24T14:49:32;16.30;25.80
3198;DHT22;1611;49.394;11.136;2023-04-24T14:51:59;15.90;27.50
3198;DHT22;1611;49.394;11.136;2023-04-24T14:54:27;15.60;28.20
3198;DHT22;1611;49.394;11.136;2023-04-24T14:56:54;15.40;28.80
3198;DHT22;1611;49.394;11.136;2023-04-24T14:59:22;14.70;31.00
3198;DHT22;1611;49.394;11.136;2023-04-24T15:01:49;14.30;31.20
3198;DHT22;1611;49.394;11.136;2023-04-24T15:04:17;14.10;32.90
3198;DHT22;1611;49.394;11.136;2023-04-24T15:06:43;14.00;32.00
3198;DHT22;1611;49.394;11.136;2023-04-24T15:09:10;13.90;32.70
3198;DHT22;1611;49.394;11.136;2023-04-24T15:11:38;14.00;31.20
3198;DHT22;1611;49.394;11.136;2023-04-24T15:14:05;14.30;30.60
3198;DHT22;1611;49.394;11.136;2023-04-24T15:16:32;14.70;29.40
3198;DHT22;1611;49.394;11.136;2023-04-24T15:18:58;15.30;29.10
3198;DHT22;1611;49.394;11.136;2023-04-24T15:21:25;16.10;27.70
3198;DHT22;1611;49.394;11.136;2023-04-24T15:23:52;16.30;26.10
3198;DHT22;1611;49.394;11.136;2023-04-24T15:26:19;15.90;27.20
3198;DHT22;1611;49.394;11.136;2023-04-24T15:28:47;15.50;28.10
3198;DHT22;1611;49.394;11.136;2023-04-24T15:31:14;15.30;29.70
3198;DHT22;1611;49.394;11.136;2023-04-24T15:33:41;15.00;31.00
3198;DHT22;1611;49.394;11.136;2023-04-24T15:36:08;14.80;30.40
3198;DHT22;1611;49.394;11.136;2023-04-24T15:38:34;14.70;30.80
3198;DHT22;1611;49.394;11.136;2023-04-24T15:41:01;14.70;33.00
3198;DHT22;1611;49.394;11.136;2023-04-24T15:43:28;14.70;31.10
3198;DHT22;1611;49.394;11.136;2023-04-24T15:45:57;14.80;31.90
3198;DHT22;1611;49.394;11.136;2023-04-24T15:48:24;14.70;30.60